Time;durP1;ratioP1;P1;durP2;ratioP2;P2;SDS_P1;SDS_P2;PMS_P1;PMS_P2;Temp;Humidity;BMP_temperature;BMP_pressure;BME280_temperature;BME280_humidity;BME280_pressure;Samples;Min_cycle;Max_cycle;Signal;HPM_P1;HPM_P2
2023/03/16 00:00:48;;;;;;;0.45;0.40;;;;;;;1.50;88.21;93074.69;5062940;28;20036;-69
2023/03/16 00:03:17;;;;;;;0.52;0.50;;;;;;;1.52;87.69;93064.69;5062892;28;20028;-69
2023/03/16 00:05:53;;;;;;;3.45;0.70;;;;;;;1.49;87.52;93076.53;5062809;28;20041;-70
2023/03/16 00:08:20;;;;;;;0.47;0.40;;;;;;;1.42;87.31;93072.63;5062727;28;20028;-69
2023/03/16 00:10:46;;;;;;;0.43;0.40;;;;;;;1.32;85.91;93071.69;5062885;28;20029;-69
2023/03/16 00:13:23;;;;;;;1.02;0.40;;;;;;;1.28;86.55;93081.13;5062815;28;20258;-69
2023/03/16 00:15:50;;;;;;;0.50;0.30;;;;;;;1.26;87.08;93090.34;5061554;28;20028;-69
2023/03/16 00:18:16;;;;;;;1.02;0.60;;;;;;;1.25;87.13;93073.03;5062647;28;20029;-69
2023/03/16 00:20:41;;;;;;;0.63;0.50;;;;;;;1.21;87.03;93088.56;5062791;28;20330;-69
2023/03/16 00:23:07;;;;;;;0.63;0.47;;;;;;;1.10;86.62;93100.16;5062808;28;20025;-69
2023/03/16 00:25:32;;;;;;;0.30;0.28;;;;;;;1.06;86.89;93086.81;5062671;28;20056;-69
2023/03/16 00:28:03;;;;;;;0.70;0.50;;;;;;;1.04;86.79;93096.81;5062702;28;20035;-69
2023/03/16 00:30:31;;;;;;;0.45;0.30;;;;;;;1.01;86.85;93094.72;5062615;28;20100;-69
2023/03/16 00:32:57;;;;;;;0.47;0.40;;;;;;;0.97;86.97;93094.47;5062656;28;20254;-69
2023/03/16 00:35:22;;;;;;;0.40;0.40;;;;;;;0.85;87.54;93093.22;5062731;28;20021;-69
2023/03/16 00:37:48;;;;;;;0.70;0.50;;;;;;;0.83;88.04;93090.88;5061150;28;20036;-69
2023/03/16 00:40:14;;;;;;;2.63;0.60;;;;;;;0.91;88.46;93095.53;5062507;28;20067;-69
2023/03/16 00:42:40;;;;;;;0.55;0.43;;;;;;;0.88;88.73;93097.94;5062567;28;20020;-69
2023/03/16 00:45:06;;;;;;;0.40;0.40;;;;;;;0.90;88.91;93098.47;5062470;28;20047;-70
2023/03/16 00:47:33;;;;;;;0.60;0.40;;;;;;;0.76;88.83;93104.28;5062231;28;20227;-70
2023/03/16 00:49:59;;;;;;;0.60;0.40;;;;;;;0.75;88.25;93099.31;5063552;28;20261;-70
2023/03/16 00:52:26;;;;;;;0.47;0.32;;;;;;;0.77;88.94;93103.25;5066453;28;20017;-70
2023/03/16 00:54:53;;;;;;;1.98;0.60;;;;;;;0.80;88.94;93094.81;5066146;28;20215;-70
2023/03/16 00:57:20;;;;;;;0.82;0.40;;;;;;;0.82;88.94;93097.19;5064713;28;20092;-70
2023/03/16 00:59:46;;;;;;;1.10;0.52;;;;;;;0.89;88.89;93097.66;5066096;28;20017;-70
2023/03/16 01:02:13;;;;;;;0.77;0.40;;;;;;;0.83;88.82;93098.75;5066138;28;20025;-70
2023/03/16 01:04:40;;;;;;;0.47;0.40;;;;;;;0.76;88.98;93104.28;5066107;28;20200;-70
2023/03/16 01:07:07;;;;;;;0.75;0.50;;;;;;;0.66;88.58;93099.09;5065774;28;20036;-70
2023/03/16 01:09:35;;;;;;;0.55;0.52;;;;;;;0.64;89.02;93105.69;5065688;28;20053;-70
2023/03/16 01:12:06;;;;;;;0.40;0.35;;;;;;;0.58;88.68;93092.56;5066056;28;20215;-70
2023/03/16 01:14:33;;;;;;;1.17;0.60;;;;;;;0.62;88.86;93095.44;5065776;28;20103;-70
2023/03/16 01:17:00;;;;;;;1.13;0.70;;;;;;;0.62;89.25;93097.28;5065657;28;20193;-70
2023/03/16 01:19:26;;;;;;;0.57;0.57;;;;;;;0.54;88.76;93101.25;5065868;28;20235;-70
2023/03/16 01:21:52;;;;;;;0.45;0.45;;;;;;;0.53;89.07;93107.53;5065673;28;20024;-70
2023/03/16 01:24:17;;;;;;;0.75;0.40;;;;;;;0.43;88.98;93097.09;5065484;28;20060;-70
2023/03/16 01:26:43;;;;;;;0.75;0.30;;;;;;;0.38;89.27;93109.16;5065675;28;20029;-70
2023/03/16 01:29:09;;;;;;;0.75;0.52;;;;;;;0.26;88.86;93128.88;5065624;28;20063;-70
2023/03/16 01:31:35;;;;;;;0.40;0.40;;;;;;;0.23;89.74;93101.38;5065603;28;20357;-71
2023/03/16 01:34:02;;;;;;;0.65;0.40;;;;;;;0.23;90.52;93121.56;5065391;28;20048;-71
2023/03/16 01:36:28;;;;;;;0.30;0.30;;;;;;;0.17;90.98;93099.81;5065435;28;20075;-71
2023/03/16 01:38:54;;;;;;;0.80;0.60;;;;;;;0.21;91.72;93113.16;5065458;28;20260;-71
2023/03/16 01:41:20;;;;;;;0.85;0.52;;;;;;;0.25;91.69;93109.75;5065487;28;20029;-71
2023/03/16 01:43:46;;;;;;;0.82;0.55;;;;;;;0.24;92.63;93118.66;5065321;28;20028;-71
2023/03/16 01:46:22;;;;;;;1.35;0.73;;;;;;;0.23;92.93;93106.59;5065339;28;20331;-71
2023/03/16 01:48:51;;;;;;;1.20;0.88;;;;;;;0.15;92.54;93110.56;5065106;28;20430;-70
2023/03/16 01:51:40;;;;;;;0.55;0.38;;;;;;;0.13;92.61;93109.25;5064926;28;20279;-71
2023/03/16 01:54:27;;;;;;;0.75;0.43;;;;;;;0.12;93.17;93118.97;5065067;28;20067;-71
2023/03/16 01:57:06;;;;;;;0.98;0.50;;;;;;;0.13;93.94;93117.13;5065198;28;20039;-71
2023/03/16 01:59:40;;;;;;;0.73;0.50;;;;;;;0.13;93.74;93115.28;5065030;28;20143;-70
2023/03/16 02:02:07;;;;;;;1.42;0.60;;;;;;;0.12;93.59;93129.44;5064447;28;20084;-71
2023/03/16 02:04:49;;;;;;;2.78;0.50;;;;;;;0.06;92.75;93120.03;5064877;28;20023;-71
2023/03/16 02:07:17;;;;;;;1.10;0.45;;;;;;;0.07;91.83;93121.56;5065019;28;20017;-71
2023/03/16 02:09:47;;;;;;;0.30;0.30;;;;;;;0.09;90.19;93142.28;5064760;28;20041;-71
2023/03/16 02:12:17;;;;;;;1.00;0.47;;;;;;;0.11;89.78;93129.69;5064672;28;20307;-71
2023/03/16 02:14:47;;;;;;;0.30;0.30;;;;;;;0.07;91.38;93142.53;5064729;28;20101;-70
2023/03/16 02:17:15;;;;;;;0.30;0.30;;;;;;;0.07;90.37;93133.91;5064559;28;20058;-71
2023/03/16 02:20:18;;;;;;;0.50;0.40;;;;;;;0.13;90.69;93154.59;5064554;28;20046;-71
2023/03/16 02:22:47;;;;;;;1.33;0.40;;;;;;;0.03;90.04;93148.59;5063253;28;20312;-71
2023/03/16 02:25:15;;;;;;;0.40;0.40;;;;;;;0.03;89.48;93151.97;5064632;28;20040;-71
2023/03/16 02:28:09;;;;;;;0.43;0.30;;;;;;;-0.01;89.88;93148.31;5063288;28;20036;-71
2023/03/16 02:30:35;;;;;;;0.52;0.45;;;;;;;-0.09;89.13;93188.94;5064321;28;20021;-70
2023/03/16 02:33:03;;;;;;;0.30;0.30;;;;;;;-0.08;90.05;93163.50;5064634;28;20044;-70
2023/03/16 02:35:30;;;;;;;1.95;0.52;;;;;;;-0.05;90.51;93161.16;5064128;28;20029;-70
2023/03/16 02:37:55;;;;;;;0.32;0.30;;;;;;;-0.07;90.14;93160.63;5064320;28;20035;-69
2023/03/16 02:40:23;;;;;;;0.30;0.30;;;;;;;-0.08;90.55;93161.69;5064267;28;20099;-70
2023/03/16 02:43:01;;;;;;;0.80;0.57;;;;;;;-0.04;90.73;93172.41;5064139;28;20020;-70
2023/03/16 02:45:32;;;;;;;0.60;0.40;;;;;;;-0.11;90.07;93161.44;5064072;28;20021;-70
2023/03/16 02:48:04;;;;;;;0.28;0.20;;;;;;;-0.09;91.25;93161.94;5063814;28;20350;-70
2023/03/16 02:50:29;;;;;;;0.45;0.35;;;;;;;-0.08;91.88;93169.56;5064039;28;20028;-70
2023/03/16 02:52:55;;;;;;;0.73;0.32;;;;;;;-0.21;91.37;93168.22;5064118;28;20067;-70
2023/03/16 02:55:20;;;;;;;1.27;0.28;;;;;;;-0.19;91.39;93173.22;5063906;28;20013;-70
2023/03/16 02:57:46;;;;;;;0.38;0.30;;;;;;;-0.19;92.05;93167.97;5063639;28;20013;-70
2023/03/16 03:00:16;;;;;;;0.85;0.47;;;;;;;-0.22;91.80;93169.28;5063597;28;20025;-70
2023/03/16 03:02:42;;;;;;;0.28;0.28;;;;;;;-0.25;93.11;93174.25;5063860;28;20095;-70
2023/03/16 03:05:08;;;;;;;0.20;0.20;;;;;;;-0.28;93.51;93178.19;5063723;28;20031;-70
2023/03/16 03:07:33;;;;;;;0.20;0.20;;;;;;;-0.36;92.92;93181.34;5063760;28;20020;-71
2023/03/16 03:09:58;;;;;;;1.27;0.40;;;;;;;-0.38;92.79;93186.06;5063480;28;20021;-70
2023/03/16 03:12:24;;;;;;;0.28;0.28;;;;;;;-0.47;92.18;93187.59;5062781;28;20020;-70
2023/03/16 03:14:49;;;;;;;0.40;0.40;;;;;;;-0.44;92.56;93184.47;5063369;28;20024;-70
2023/03/16 03:17:15;;;;;;;0.30;0.30;;;;;;;-0.47;90.45;93190.22;5063379;28;20020;-70
2023/03/16 03:19:41;;;;;;;1.25;0.52;;;;;;;-0.40;90.96;93209.09;5063178;28;20043;-70
2023/03/16 03:22:06;;;;;;;0.28;0.20;;;;;;;-0.46;91.38;93205.69;5063478;28;20025;-70
2023/03/16 03:24:33;;;;;;;0.30;0.30;;;;;;;-0.49;91.88;93192.31;5063429;28;20025;-70
2023/03/16 03:27:05;;;;;;;0.17;0.17;;;;;;;-0.51;91.43;93197.03;5063183;28;20013;-70
2023/03/16 03:29:33;;;;;;;;;;;;;;;-0.54;90.60;93195.72;5063620;28;20028;-69
2023/03/16 03:32:01;;;;;;;0.30;0.30;;;;;;;-0.56;90.98;93226.59;5063230;28;19908;-70
2023/03/16 03:34:28;;;;;;;0.38;0.28;;;;;;;-0.58;92.16;93205.13;5063437;28;20016;-70
2023/03/16 03:36:53;;;;;;;0.30;0.30;;;;;;;-0.56;93.20;93208.28;5063127;28;20222;-70
2023/03/16 03:39:19;;;;;;;1.15;0.52;;;;;;;-0.54;93.96;93214.03;5062928;28;20054;-70
2023/03/16 03:41:44;;;;;;;0.32;0.30;;;;;;;-0.62;92.22;93228.41;5063025;28;20024;-70
2023/03/16 03:44:10;;;;;;;0.20;0.20;;;;;;;-0.64;91.31;93216.66;5063171;28;20052;-70
2023/03/16 03:46:35;;;;;;;0.30;0.30;;;;;;;-0.62;91.87;93217.94;5062954;28;20021;-70
2023/03/16 03:49:04;;;;;;;0.30;0.30;;;;;;;-0.62;92.30;93207.47;5062951;28;20036;-70
2023/03/16 03:51:33;;;;;;;0.40;0.30;;;;;;;-0.63;92.21;93200.69;5062940;28;20021;-69
2023/03/16 03:53:58;;;;;;;0.30;0.20;;;;;;;-0.66;91.64;93232.59;5062871;28;20088;-69
2023/03/16 03:56:24;;;;;;;0.20;0.20;;;;;;;-0.72;90.33;93238.88;5063064;28;20029;-69
2023/03/16 03:58:50;;;;;;;1.30;0.30;;;;;;;-0.70;89.74;93236.00;5062875;28;20024;-70
2023/03/16 04:01:16;;;;;;;0.55;0.40;;;;;;;-0.67;90.48;93248.56;5062858;28;20040;-70
2023/03/16 04:03:41;;;;;;;0.20;0.20;;;;;;;-0.67;90.72;93244.13;5062826;28;20064;-70
2023/03/16 04:06:07;;;;;;;0.40;0.32;;;;;;;-0.69;90.26;93246.22;5062929;28;20052;-70
2023/03/16 04:08:33;;;;;;;0.35;0.25;;;;;;;-0.68;88.88;93253.00;5062836;28;20036;-70
2023/03/16 04:10:59;;;;;;;0.98;0.30;;;;;;;-0.67;89.48;93246.75;5062755;28;20303;-70
2023/03/16 04:13:25;;;;;;;0.63;0.50;;;;;;;-0.61;89.70;93247.56;5062905;28;20112;-70
2023/03/16 04:16:03;;;;;;;3.03;0.30;;;;;;;-0.66;89.21;93244.91;5062650;28;20112;-69
2023/03/16 04:18:37;;;;;;;0.20;0.20;;;;;;;-0.67;89.52;93244.13;5062784;28;20040;-69
2023/03/16 04:21:11;;;;;;;0.28;0.28;;;;;;;-0.63;89.02;93241.78;5062640;28;20020;-69
2023/03/16 04:23:37;;;;;;;0.30;0.30;;;;;;;-0.70;89.55;93257.72;5061889;28;20320;-70
2023/03/16 04:26:04;;;;;;;0.40;0.30;;;;;;;-0.71;89.16;93250.91;5066686;28;20105;-70
2023/03/16 04:28:31;;;;;;;0.20;0.20;;;;;;;-0.75;89.08;93260.34;5066706;28;20043;-70
2023/03/16 04:31:06;;;;;;;0.75;0.30;;;;;;;-0.74;89.13;93271.59;5066575;28;20096;-70
2023/03/16 04:33:36;;;;;;;0.43;0.40;;;;;;;-0.75;88.87;93273.41;5066503;28;20029;-70
2023/03/16 04:36:02;;;;;;;0.30;0.30;;;;;;;-0.76;88.23;93269.22;5066405;28;20021;-69
2023/03/16 04:38:34;;;;;;;0.20;0.20;;;;;;;-0.67;87.68;93262.44;5066663;28;20039;-70
2023/03/16 04:41:02;;;;;;;0.20;0.20;;;;;;;-0.59;87.21;93258.56;5066370;28;20258;-70
2023/03/16 04:43:28;;;;;;;0.43;0.30;;;;;;;-0.68;88.59;93276.56;5066416;28;20062;-70
2023/03/16 04:45:53;;;;;;;0.88;0.38;;;;;;;-0.64;88.16;93272.38;5066325;28;20025;-70
2023/03/16 04:48:19;;;;;;;1.20;0.30;;;;;;;-0.59;87.01;93286.53;5066121;28;20223;-70
2023/03/16 04:50:46;;;;;;;0.35;0.28;;;;;;;-0.59;87.84;93281.31;5066354;28;20028;-70
2023/03/16 04:53:12;;;;;;;0.30;0.30;;;;;;;-0.65;87.72;93286.53;5066194;28;20311;-70
2023/03/16 04:55:37;;;;;;;0.30;0.30;;;;;;;-0.67;87.57;93293.06;5066136;28;20020;-70
2023/03/16 04:58:03;;;;;;;0.70;0.40;;;;;;;-0.58;86.88;93295.97;5066107;28;20045;-70
2023/03/16 05:00:28;;;;;;;0.43;0.43;;;;;;;-0.59;87.59;93304.84;5065977;28;20268;-70
2023/03/16 05:02:54;;;;;;;1.40;0.50;;;;;;;-0.61;88.13;93298.06;5066154;28;20308;-70
2023/03/16 05:05:20;;;;;;;0.30;0.30;;;;;;;-0.64;87.02;93303.03;5066043;28;20032;-70
2023/03/16 05:07:46;;;;;;;0.40;0.30;;;;;;;-0.68;87.12;93307.97;5065999;28;20021;-70
2023/03/16 05:10:14;;;;;;;0.85;0.60;;;;;;;-0.61;87.48;93308.53;5065911;28;20267;-69
2023/03/16 05:12:40;;;;;;;0.40;0.40;;;;;;;-0.63;87.56;93318.47;5065904;28;20119;-69
2023/03/16 05:15:06;;;;;;;0.30;0.30;;;;;;;-0.61;87.67;93313.78;5065897;28;20029;-70
2023/03/16 05:17:32;;;;;;;0.38;0.30;;;;;;;-0.60;87.49;93309.31;5065615;28;20032;-70
2023/03/16 05:19:58;;;;;;;0.65;0.30;;;;;;;-0.62;86.05;93312.19;5065625;28;20025;-70
2023/03/16 05:22:24;;;;;;;0.20;0.20;;;;;;;-0.56;86.65;93323.47;5065722;28;20092;-70
2023/03/16 05:24:50;;;;;;;0.30;0.30;;;;;;;-0.53;85.66;93320.34;5065685;28;20025;-70
2023/03/16 05:27:15;;;;;;;0.43;0.30;;;;;;;-0.51;85.83;93320.88;5065485;28;20066;-70
2023/03/16 05:29:45;;;;;;;0.60;0.40;;;;;;;-0.45;86.34;93321.66;5065446;28;20017;-70
2023/03/16 05:32:11;;;;;;;0.68;0.40;;;;;;;-0.50;85.60;93337.38;5065281;28;20116;-70
2023/03/16 05:34:37;;;;;;;1.33;0.57;;;;;;;-0.55;86.81;93330.28;5065332;28;20024;-70
2023/03/16 05:37:03;;;;;;;0.30;0.30;;;;;;;-0.53;86.62;93330.00;5064276;28;20025;-69
2023/03/16 05:39:29;;;;;;;0.52;0.40;;;;;;;-0.53;85.48;93335.25;5064068;28;20020;-70
2023/03/16 05:41:56;;;;;;;1.15;0.55;;;;;;;-0.57;85.94;93340.22;5065477;28;20028;-70
2023/03/16 05:44:21;;;;;;;0.93;0.82;;;;;;;-0.54;86.73;93342.31;5065267;28;20021;-69
2023/03/16 05:46:47;;;;;;;1.45;0.75;;;;;;;-0.54;87.46;93354.63;5065170;28;20100;-70
2023/03/16 05:49:12;;;;;;;0.20;0.20;;;;;;;-0.58;86.83;93348.34;5064903;28;20342;-70
2023/03/16 05:51:38;;;;;;;0.73;0.52;;;;;;;-0.54;87.44;93358.03;5065005;28;20044;-69
2023/03/16 05:54:03;;;;;;;0.55;0.40;;;;;;;-0.62;87.42;93351.44;5065146;28;20017;-69
2023/03/16 05:56:29;;;;;;;1.33;0.38;;;;;;;-0.64;87.67;93364.00;5064763;28;20024;-69
2023/03/16 05:58:56;;;;;;;1.17;0.45;;;;;;;-0.70;87.83;93372.88;5064868;28;20028;-69
2023/03/16 06:01:22;;;;;;;1.85;0.50;;;;;;;-0.64;88.67;93377.09;5064892;28;20096;-70
2023/03/16 06:03:48;;;;;;;0.80;0.40;;;;;;;-0.62;88.98;93376.84;5064809;28;20216;-70
2023/03/16 06:06:21;;;;;;;1.27;0.60;;;;;;;-0.59;89.18;93375.53;5064731;28;20055;-70
2023/03/16 06:08:47;;;;;;;1.02;0.60;;;;;;;-0.63;89.57;93377.91;5064505;28;20029;-70
2023/03/16 06:11:13;;;;;;;0.32;0.30;;;;;;;-0.66;88.49;93373.94;5064513;28;20051;-70
2023/03/16 06:13:38;;;;;;;1.63;0.68;;;;;;;-0.59;88.58;93392.06;5064266;28;20095;-69
2023/03/16 06:16:05;;;;;;;0.40;0.40;;;;;;;-0.59;88.79;93391.25;5064241;28;20040;-70
2023/03/16 06:18:31;;;;;;;0.50;0.40;;;;;;;-0.56;88.53;93383.66;5064588;28;20021;-70
2023/03/16 06:20:57;;;;;;;0.45;0.43;;;;;;;-0.55;88.88;93387.06;5064437;28;20025;-70
2023/03/16 06:23:23;;;;;;;1.63;0.70;;;;;;;-0.59;88.72;93405.13;5064478;28;20020;-70
2023/03/16 06:25:49;;;;;;;0.50;0.35;;;;;;;-0.61;89.33;93399.38;5063995;28;20088;-70
2023/03/16 06:28:14;;;;;;;1.42;0.60;;;;;;;-0.62;89.40;93406.41;5064119;28;20278;-69
2023/03/16 06:30:40;;;;;;;0.30;0.30;;;;;;;-0.69;87.85;93400.63;5064153;28;20025;-70
2023/03/16 06:33:06;;;;;;;1.45;0.63;;;;;;;-0.65;87.85;93404.31;5064094;28;20020;-70
2023/03/16 06:35:32;;;;;;;0.95;0.70;;;;;;;-0.62;87.84;93416.09;5064011;28;20021;-71
2023/03/16 06:37:58;;;;;;;0.70;0.50;;;;;;;-0.55;87.61;93429.78;5064028;28;20266;-70
2023/03/16 06:40:23;;;;;;;0.68;0.50;;;;;;;-0.56;86.80;93441.25;5064181;28;20055;-71
2023/03/16 06:42:48;;;;;;;0.38;0.38;;;;;;;-0.51;87.06;93427.41;5063835;28;20032;-70
2023/03/16 06:45:15;;;;;;;1.10;0.40;;;;;;;-0.53;86.61;93430.31;5063844;28;20127;-70
2023/03/16 06:47:42;;;;;;;0.85;0.57;;;;;;;-0.48;87.26;93443.41;5063477;28;20013;-69
2023/03/16 06:50:08;;;;;;;0.98;0.50;;;;;;;-0.46;85.48;93438.69;5063798;28;20021;-69
2023/03/16 06:52:34;;;;;;;1.65;0.75;;;;;;;-0.42;85.95;93433.75;5063809;28;20070;-71
2023/03/16 06:54:59;;;;;;;0.47;0.45;;;;;;;-0.44;85.19;93438.44;5063749;28;20322;-69
2023/03/16 06:57:25;;;;;;;0.98;0.47;;;;;;;-0.39;84.21;93443.69;5063673;28;20025;-70
2023/03/16 06:59:50;;;;;;;0.60;0.50;;;;;;;-0.43;84.23;93446.06;5063696;28;20027;-70
2023/03/16 07:02:16;;;;;;;0.82;0.50;;;;;;;-0.42;84.32;93450.25;5063550;28;20252;-72
2023/03/16 07:04:42;;;;;;;0.63;0.52;;;;;;;-0.25;84.16;93452.66;5063472;28;20055;-71
2023/03/16 07:07:08;;;;;;;0.80;0.50;;;;;;;-0.22;83.70;93446.94;5063335;28;20024;-70
2023/03/16 07:09:34;;;;;;;1.27;0.70;;;;;;;-0.14;83.65;93452.72;5063324;28;20041;-73
2023/03/16 07:11:59;;;;;;;1.05;0.50;;;;;;;-0.22;82.57;93467.88;5063132;28;20067;-70
2023/03/16 07:14:25;;;;;;;1.75;0.68;;;;;;;-0.27;83.10;93462.59;5063529;28;20042;-70
2023/03/16 07:16:51;;;;;;;1.30;0.98;;;;;;;-0.25;83.49;93485.94;5063191;28;20021;-70
2023/03/16 07:19:17;;;;;;;0.82;0.50;;;;;;;-0.19;83.96;93461.34;5063392;28;20025;-70
2023/03/16 07:21:43;;;;;;;1.20;0.52;;;;;;;-0.23;84.19;93473.38;5063100;28;20223;-70
2023/03/16 07:24:09;;;;;;;1.42;0.75;;;;;;;-0.22;85.01;93467.88;5063164;28;20017;-70
2023/03/16 07:26:35;;;;;;;1.30;0.70;;;;;;;-0.13;84.57;93485.72;5062972;28;20027;-70
2023/03/16 07:29:02;;;;;;;1.33;0.80;;;;;;;-0.20;83.79;93485.97;5062940;28;20219;-70
2023/03/16 07:31:27;;;;;;;1.02;0.55;;;;;;;-0.29;83.51;93477.78;5062957;28;20059;-70
2023/03/16 07:33:53;;;;;;;0.90;0.60;;;;;;;-0.27;84.65;93475.72;5063128;28;20029;-70
2023/03/16 07:36:18;;;;;;;1.95;0.82;;;;;;;-0.28;83.69;93476.75;5062963;28;20025;-70
2023/03/16 07:38:43;;;;;;;1.23;0.43;;;;;;;-0.29;83.64;93488.28;5062777;28;20029;-70
2023/03/16 07:41:09;;;;;;;0.85;0.50;;;;;;;-0.21;84.30;93485.16;5062905;28;20025;-69
2023/03/16 07:43:34;;;;;;;2.10;1.13;;;;;;;-0.11;83.48;93491.50;5062979;28;20029;-69
2023/03/16 07:46:00;;;;;;;1.58;0.98;;;;;;;-0.01;83.88;93483.69;5061545;28;20020;-70
2023/03/16 07:48:26;;;;;;;2.28;0.80;;;;;;;0.06;83.22;93493.94;5060197;28;20037;-70
2023/03/16 07:50:51;;;;;;;0.98;0.68;;;;;;;0.04;81.58;93491.59;5062693;28;20040;-69
2023/03/16 07:53:17;;;;;;;1.08;0.70;;;;;;;0.08;82.27;93503.13;5061391;28;20047;-70
2023/03/16 07:55:43;;;;;;;2.00;0.80;;;;;;;0.18;82.34;93492.69;5062415;28;20043;-70
2023/03/16 07:58:10;;;;;;;1.33;0.60;;;;;;;0.17;81.74;93485.06;5062332;28;20031;-70
2023/03/16 08:00:36;;;;;;;0.60;0.50;;;;;;;0.14;80.58;93496.88;5062556;28;20036;-69
2023/03/16 08:03:02;;;;;;;1.35;0.60;;;;;;;0.17;80.63;93506.81;5061312;28;20032;-69
2023/03/16 08:05:28;;;;;;;0.77;0.50;;;;;;;0.19;80.34;93490.84;5062572;28;20049;-69
2023/03/16 08:07:54;;;;;;;0.95;0.57;;;;;;;0.25;81.00;93483.78;5062452;28;20016;-69
2023/03/16 08:10:20;;;;;;;0.93;0.50;;;;;;;0.33;80.26;93496.41;5062354;28;20270;-70
2023/03/16 08:12:46;;;;;;;2.28;0.85;;;;;;;0.37;79.88;93486.97;5062478;28;20017;-69
2023/03/16 08:15:11;;;;;;;1.02;0.65;;;;;;;0.48;80.31;93506.91;5062383;28;20020;-70
2023/03/16 08:17:40;;;;;;;1.55;0.68;;;;;;;0.56;79.92;93500.38;5062440;28;20024;-70
2023/03/16 08:20:09;;;;;;;0.80;0.60;;;;;;;0.56;80.34;93503.78;5062491;28;20088;-70
2023/03/16 08:22:35;;;;;;;2.05;1.00;;;;;;;0.60;79.21;93499.59;5062345;28;20027;-70
2023/03/16 08:25:02;;;;;;;1.20;0.70;;;;;;;0.59;79.43;93521.63;5062401;28;20230;-69
2023/03/16 08:27:28;;;;;;;1.40;0.85;;;;;;;0.63;79.14;93515.88;5062303;28;20074;-69
2023/03/16 08:29:54;;;;;;;1.67;0.90;;;;;;;0.68;79.74;93521.91;5062677;28;20215;-70
2023/03/16 08:32:20;;;;;;;1.23;0.60;;;;;;;0.69;78.71;93520.06;5062245;28;20021;-70
2023/03/16 08:34:46;;;;;;;2.13;0.93;;;;;;;0.65;79.76;93540.78;5062364;28;20024;-69
2023/03/16 08:37:13;;;;;;;1.50;0.75;;;;;;;0.70;79.17;93524.28;5062128;28;20216;-70
2023/03/16 08:39:42;;;;;;;0.57;0.47;;;;;;;0.68;77.49;93537.66;5062285;28;20357;-70
2023/03/16 08:42:14;;;;;;;0.95;0.57;;;;;;;0.85;78.89;93526.91;5062200;28;20031;-70
2023/03/16 08:44:40;;;;;;;2.35;0.77;;;;;;;0.88;78.48;93517.75;5062073;28;20029;-70
2023/03/16 08:47:05;;;;;;;2.92;0.77;;;;;;;0.95;78.73;93528.78;5062267;28;20067;-71
2023/03/16 08:49:30;;;;;;;1.58;0.80;;;;;;;1.05;78.36;93514.88;5062294;28;20282;-70
2023/03/16 08:51:56;;;;;;;1.25;0.80;;;;;;;1.03;76.63;93540.59;5062180;28;20190;-70
2023/03/16 08:54:21;;;;;;;1.58;0.60;;;;;;;1.13;77.90;93530.09;5062154;28;20032;-70
2023/03/16 08:56:47;;;;;;;0.73;0.60;;;;;;;1.05;76.07;93535.88;5062093;28;20041;-71
2023/03/16 08:59:12;;;;;;;1.73;0.77;;;;;;;1.02;75.69;93552.13;5062158;28;20029;-70
2023/03/16 09:01:39;;;;;;;1.50;0.52;;;;;;;0.96;76.43;93541.66;5062225;28;20017;-71
2023/03/16 09:04:04;;;;;;;0.65;0.43;;;;;;;0.99;76.46;93538.47;5062211;28;20032;-70
2023/03/16 09:06:30;;;;;;;1.33;0.80;;;;;;;0.98;78.30;93534.28;5061905;28;20016;-70
2023/03/16 09:08:56;;;;;;;1.50;0.93;;;;;;;0.98;76.37;93549.25;5062231;28;20017;-70
2023/03/16 09:11:22;;;;;;;1.70;1.02;;;;;;;0.91;77.63;93538.22;5063744;28;20017;-69
2023/03/16 09:13:48;;;;;;;1.35;0.80;;;;;;;1.03;78.64;93538.75;5065745;28;20035;-69
2023/03/16 09:16:14;;;;;;;1.33;0.85;;;;;;;1.05;76.22;93541.91;5065472;28;20029;-69
2023/03/16 09:18:41;;;;;;;1.13;0.55;;;;;;;1.05;75.48;93547.16;5065524;28;20043;-69
2023/03/16 09:21:09;;;;;;;2.15;0.93;;;;;;;1.08;76.81;93558.97;5065491;28;20017;-68
2023/03/16 09:23:40;;;;;;;4.22;0.88;;;;;;;1.11;75.92;93545.34;5065628;28;20028;-68
2023/03/16 09:26:06;;;;;;;1.45;1.02;;;;;;;1.22;75.60;93552.16;5065442;28;20009;-69
2023/03/16 09:28:33;;;;;;;2.72;0.70;;;;;;;1.26;75.81;93563.69;5065418;28;20070;-69
2023/03/16 09:31:00;;;;;;;2.05;1.10;;;;;;;1.32;76.23;93560.06;5065144;28;20021;-70
2023/03/16 09:33:27;;;;;;;2.92;0.95;;;;;;;1.42;75.90;93558.47;5065348;28;20024;-69
2023/03/16 09:35:54;;;;;;;3.33;1.10;;;;;;;1.37;74.89;93554.78;5065426;28;20025;-69
2023/03/16 09:38:20;;;;;;;1.45;0.77;;;;;;;1.44;75.85;93553.75;5065355;28;20033;-69
2023/03/16 09:40:49;;;;;;;2.25;0.90;;;;;;;1.46;75.51;93549.78;5065196;28;20196;-69
2023/03/16 09:43:28;;;;;;;2.70;1.25;;;;;;;1.46;76.38;93556.91;5065136;28;20226;-69
2023/03/16 09:46:12;;;;;;;2.40;0.70;;;;;;;1.23;74.30;93551.13;5065093;28;20065;-69
2023/03/16 09:48:39;;;;;;;1.77;0.70;;;;;;;1.25;76.60;93558.72;5065024;28;20052;-68
2023/03/16 09:51:19;;;;;;;3.28;1.17;;;;;;;1.19;76.45;93550.84;5065075;28;20025;-69
2023/03/16 09:53:46;;;;;;;4.22;1.45;;;;;;;1.25;77.85;93559.53;5065158;28;20040;-68
2023/03/16 09:56:26;;;;;;;1.75;0.82;;;;;;;1.28;78.74;93560.81;5064833;28;20039;-69
2023/03/16 09:58:51;;;;;;;2.75;1.35;;;;;;;1.26;78.42;93560.28;5064726;28;20247;-69
2023/03/16 10:01:23;;;;;;;3.00;1.45;;;;;;;1.29;79.60;93547.44;5064783;28;20064;-69
2023/03/16 10:04:04;;;;;;;6.55;1.85;;;;;;;1.34;81.16;93563.22;5064902;28;20032;-69
2023/03/16 10:06:31;;;;;;;2.88;1.55;;;;;;;1.37;81.05;93557.41;5064728;28;20092;-69
2023/03/16 10:09:03;;;;;;;4.50;1.33;;;;;;;1.29;78.12;93555.31;5064554;28;20040;-69
2023/03/16 10:11:43;;;;;;;2.78;1.13;;;;;;;1.38;76.53;93559.00;5064823;28;20044;-69
2023/03/16 10:14:26;;;;;;;0.93;0.75;;;;;;;1.35;75.13;93596.28;5064612;28;20206;-69
2023/03/16 10:17:00;;;;;;;2.47;1.15;;;;;;;1.40;75.43;93561.34;5064402;28;20067;-69
2023/03/16 10:19:31;;;;;;;1.85;0.75;;;;;;;1.48;75.42;93567.91;5064550;28;20036;-69
2023/03/16 10:22:01;;;;;;;1.92;0.65;;;;;;;1.47;75.67;93569.00;5064193;28;20211;-69
2023/03/16 10:24:40;;;;;;;2.42;1.30;;;;;;;1.48;75.73;93567.91;5064690;28;20029;-69
2023/03/16 10:27:15;;;;;;;2.20;1.13;;;;;;;1.31;74.73;93563.72;5064450;28;20196;-69
2023/03/16 10:29:41;;;;;;;1.40;0.90;;;;;;;1.37;75.88;93572.41;5064309;28;20020;-70
2023/03/16 10:32:15;;;;;;;3.05;1.35;;;;;;;1.39;76.44;93565.81;5064370;28;20052;-68
2023/03/16 10:34:47;;;;;;;3.67;1.17;;;;;;;1.39;76.18;93573.69;5064033;28;20033;-71
2023/03/16 10:37:13;;;;;;;1.55;1.02;;;;;;;1.39;75.62;93555.31;5064233;28;20025;-69
2023/03/16 10:39:42;;;;;;;1.52;1.00;;;;;;;1.40;76.30;93571.84;5063732;28;20346;-68
2023/03/16 10:42:15;;;;;;;2.72;1.30;;;;;;;1.35;76.11;93562.16;5063997;28;20029;-69
2023/03/16 10:44:41;;;;;;;1.83;1.20;;;;;;;1.38;76.73;93566.88;5063726;28;20027;-69
2023/03/16 10:47:15;;;;;;;1.52;1.00;;;;;;;1.40;77.74;93570.03;5064034;28;20060;-69
2023/03/16 10:49:47;;;;;;;2.47;1.15;;;;;;;1.34;75.49;93560.59;5063555;28;20045;-70
2023/03/16 10:52:13;;;;;;;1.88;1.30;;;;;;;1.40;75.90;93562.16;5063867;28;20306;-68
2023/03/16 10:54:39;;;;;;;4.13;1.50;;;;;;;1.52;76.38;93576.84;5063690;28;20059;-68
2023/03/16 10:57:32;;;;;;;2.63;1.38;;;;;;;1.45;75.28;93565.84;5063348;28;20017;-69
2023/03/16 11:00:12;;;;;;;1.67;1.13;;;;;;;1.49;75.61;93569.50;5063246;28;20021;-69
2023/03/16 11:02:38;;;;;;;2.63;1.35;;;;;;;1.57;76.00;93564.50;5063434;28;20082;-69
2023/03/16 11:05:16;;;;;;;2.47;1.23;;;;;;;1.64;76.21;93580.00;5063372;28;20025;-68
2023/03/16 11:08:14;;;;;;;2.72;1.45;;;;;;;1.54;74.59;93566.88;5063493;28;20358;-69
2023/03/16 11:10:43;;;;;;;3.05;1.48;;;;;;;1.49;74.54;93572.13;5063233;28;20059;-70
2023/03/16 11:13:13;;;;;;;2.80;1.55;;;;;;;1.49;74.98;93559.78;5063241;28;20070;-69
2023/03/16 11:16:01;;;;;;;2.58;1.40;;;;;;;1.54;76.07;93574.75;5063383;28;20025;-69
2023/03/16 11:18:29;;;;;;;3.05;1.75;;;;;;;1.56;75.03;93570.81;5063471;28;20021;-69
2023/03/16 11:20:59;;;;;;;2.75;1.70;;;;;;;1.56;75.18;93564.75;5063038;28;20028;-70
2023/03/16 11:23:31;;;;;;;3.17;1.83;;;;;;;1.64;74.46;93572.13;5063412;28;20261;-69
2023/03/16 11:26:02;;;;;;;3.03;1.75;;;;;;;1.60;74.19;93584.97;5063232;28;20021;-69
2023/03/16 11:28:42;;;;;;;4.53;2.28;;;;;;;1.60;74.58;93563.97;5063303;28;20033;-70
2023/03/16 11:31:16;;;;;;;5.45;2.22;;;;;;;1.65;75.79;93568.44;5063273;28;20066;-71
2023/03/16 11:33:49;;;;;;;4.70;2.13;;;;;;;1.79;75.52;93566.84;5062494;28;20036;-71
2023/03/16 11:36:26;;;;;;;2.78;1.85;;;;;;;1.84;72.64;93578.41;5063038;28;20040;-71
2023/03/16 11:39:12;;;;;;;6.53;2.50;;;;;;;1.79;72.33;93566.06;5062953;28;20100;-71
2023/03/16 11:42:08;;;;;;;8.52;3.45;;;;;;;1.82;72.54;93572.63;5062750;28;20028;-70
2023/03/16 11:45:12;;;;;;;4.82;2.78;;;;;;;1.88;73.94;93576.84;5062941;28;20032;-71